Etusivu
METAR-TAF:

METAR-TAF

Lentoasemat :

Coral Harbourin lentoasema

Coral Harbour, Nunavut, Kanada

Leveyspiiri: 64-12N, Pituuspiiri: 083-22W, korkeus merenpinnasta: 64 m

Tämänhetkinen sää

Tämä raportti tehtiin 18 minuuttia sitten, kello 11.00 UTC
Tuuli 11 kn pohjoisen/luoteesta
Lämpötila -33°C
Kosteus 67%
Ilmanpaine 1029 hPa
Näkyvyys: 24.1 km
selkeää
jääkiteitä

METAR: CYZS 261100Z 34011KT 15SM IC SKC M33/M37 A3038 RMK SLP300

Aika: 06:18 (11:18 UTC)

Sääennuste

Tämä raportti tehtiin 4 tuntia ja 40 minuuttia sitten, kello 06.38 UTC
Ennuste voimassa 26. päivästä klo 07 UTC - 26. päivään klo 19 UTC
Tuuli 8 kn pohjoisen/luoteesta
Näkyvyys: 10 km
selkeää

TAF: CYZS 260638Z 2607/2619 34008KT P6SM SKC RMK NXT FCST BY 261300Z

Säähavainnot ja -ennusteet yli 4000 lentoasemalta (METAR- ja TAF-raportit).

Käytössä olevat sääasemat on merkitty karttaan keltaisilla ja punaisilla pisteillä.

Aseta hiiri pisteen päälle nähdäksesi sääaseman nimen.

Klikkaa sitten nähdäksesi säähavainnot ja -ennusteet.

Kartan vaihtaminen: klikkaa mustalla rastilla varustettuja vihreitä pisteitä, niin voit zoomata sisään; viivalla varustettua vihreää pistettä, niin voit zoomata ulos tai vihreitä nuolia, niin pääset viereisille kartoille.


METAR-TAF: